createdAt,value
2022-10-08T00:00:10.378Z,12.55
2022-10-08T00:02:40.875Z,11.65
2022-10-08T00:05:10.963Z,11.32
2022-10-08T00:07:42.128Z,10.98
2022-10-08T00:10:10.859Z,11.05
2022-10-08T00:12:39.465Z,11.55
2022-10-08T00:15:09.695Z,10.77
2022-10-08T00:17:38.217Z,12.52
2022-10-08T00:20:10.794Z,11.60
2022-10-08T00:22:39.234Z,11.30
2022-10-08T00:25:10.349Z,11.77
2022-10-08T00:27:39.109Z,11.48
2022-10-08T00:30:09.574Z,12.52
2022-10-08T00:32:38.338Z,11.88
2022-10-08T00:35:09.454Z,12.73
2022-10-08T00:37:37.962Z,13.93
2022-10-08T00:40:07.641Z,11.88
2022-10-08T00:42:36.285Z,11.75
2022-10-08T00:45:06.418Z,11.90
2022-10-08T00:47:40.707Z,12.23
2022-10-08T00:50:16.030Z,11.00
2022-10-08T00:52:48.583Z,12.95
2022-10-08T00:55:20.226Z,12.35
2022-10-08T00:57:48.734Z,12.00
2022-10-08T01:00:19.448Z,13.02
2022-10-08T01:02:48.426Z,12.52
2022-10-08T01:05:20.734Z,11.98
2022-10-08T01:07:52.359Z,12.45
2022-10-08T01:10:28.675Z,12.38
2022-10-08T01:13:07.570Z,11.45
2022-10-08T01:15:40.709Z,14.32
2022-10-08T01:18:13.588Z,11.88
2022-10-08T01:20:53.557Z,12.30
2022-10-08T01:23:56.947Z,12.55
2022-10-08T01:26:46.827Z,13.23
2022-10-08T01:29:19.733Z,11.70
2022-10-08T01:31:49.950Z,11.52
2022-10-08T01:34:21.746Z,14.23
2022-10-08T01:36:51.901Z,12.20
2022-10-08T01:39:22.425Z,11.52
2022-10-08T01:41:53.422Z,14.43
2022-10-08T01:44:26.118Z,12.50
2022-10-08T01:46:55.115Z,12.27
2022-10-08T01:49:24.238Z,11.85
2022-10-08T01:51:54.415Z,11.95
2022-10-08T01:54:23.118Z,13.35
2022-10-08T01:56:51.571Z,11.82
2022-10-08T01:59:23.837Z,14.25
2022-10-08T02:01:57.567Z,12.43
2022-10-08T02:04:35.958Z,13.30
2022-10-08T02:07:08.346Z,12.25
2022-10-08T02:09:38.667Z,11.52
2022-10-08T02:12:07.397Z,12.02
2022-10-08T02:14:39.116Z,11.57
2022-10-08T02:17:19.958Z,11.57
2022-10-08T02:19:53.832Z,12.73
2022-10-08T02:22:26.056Z,13.35
2022-10-08T02:24:58.031Z,12.43
2022-10-08T02:27:30.400Z,12.25
2022-10-08T02:30:06.674Z,13.30
2022-10-08T02:32:37.291Z,13.05
2022-10-08T02:35:12.295Z,13.57
2022-10-08T02:37:44.278Z,11.77
2022-10-08T02:40:14.510Z,12.88
2022-10-08T02:42:45.918Z,12.98
2022-10-08T02:45:18.304Z,11.00
2022-10-08T02:47:47.203Z,12.13
2022-10-08T02:50:19.412Z,13.50
2022-10-08T02:52:48.272Z,12.18
2022-10-08T02:55:24.967Z,11.80
2022-10-08T02:57:58.822Z,16.17
2022-10-08T03:00:33.113Z,12.20
2022-10-08T03:03:06.744Z,11.40
2022-10-08T03:05:35.462Z,11.50
2022-10-08T03:08:04.699Z,11.55
2022-10-08T03:10:34.612Z,12.23
2022-10-08T03:13:03.590Z,12.27
2022-10-08T03:15:34.166Z,12.38
2022-10-08T03:18:03.632Z,12.43
2022-10-08T03:20:32.278Z,13.18
2022-10-08T03:23:01.864Z,12.00
2022-10-08T03:25:30.323Z,12.07
2022-10-08T03:27:58.856Z,10.98
2022-10-08T03:30:27.438Z,14.18
2022-10-08T03:32:57.366Z,11.25
2022-10-08T03:35:25.935Z,12.50
2022-10-08T03:37:54.812Z,11.40
2022-10-08T03:40:23.337Z,12.90
2022-10-08T03:42:52.702Z,12.98
2022-10-08T03:45:21.165Z,13.18
2022-10-08T03:47:52.759Z,11.77
2022-10-08T03:50:22.992Z,11.32
2022-10-08T03:52:51.632Z,12.15
2022-10-08T03:55:20.166Z,12.02
2022-10-08T03:57:48.816Z,11.75
2022-10-08T04:00:17.956Z,13.05
2022-10-08T04:02:51.356Z,11.77
2022-10-08T04:05:20.097Z,13.07
2022-10-08T04:07:50.187Z,12.35
2022-10-08T04:10:18.661Z,12.25
2022-10-08T04:12:47.403Z,13.00
2022-10-08T04:15:16.169Z,12.27
2022-10-08T04:17:44.751Z,12.55
2022-10-08T04:20:13.208Z,14.57
2022-10-08T04:22:41.827Z,12.88
2022-10-08T04:25:11.698Z,12.65
2022-10-08T04:27:40.273Z,12.80
2022-10-08T04:30:10.400Z,13.60
2022-10-08T04:32:39.002Z,12.43
2022-10-08T04:35:08.729Z,12.43
2022-10-08T04:37:37.770Z,13.75
2022-10-08T04:40:07.344Z,12.73
2022-10-08T04:42:37.439Z,12.60
2022-10-08T04:45:06.778Z,11.80
2022-10-08T04:47:35.520Z,12.88
2022-10-08T04:50:04.120Z,12.98
2022-10-08T04:52:33.294Z,12.55
2022-10-08T04:55:01.790Z,13.13
2022-10-08T04:57:30.484Z,14.35
2022-10-08T05:00:17.711Z,13.68
2022-10-08T05:02:47.459Z,13.07
2022-10-08T05:05:16.459Z,12.43
2022-10-08T05:07:45.248Z,14.10
2022-10-08T05:10:13.791Z,12.48
2022-10-08T05:12:42.289Z,13.35
2022-10-08T05:15:12.820Z,13.50
2022-10-08T05:17:41.354Z,11.82
2022-10-08T05:20:10.494Z,12.77
2022-10-08T05:22:39.030Z,14.02
2022-10-08T05:25:09.037Z,13.27
2022-10-08T05:27:37.555Z,11.10
2022-10-08T05:30:07.972Z,11.93
2022-10-08T05:32:37.769Z,11.80
2022-10-08T05:35:07.558Z,11.98
2022-10-08T05:37:36.047Z,12.07
2022-10-08T05:40:04.726Z,11.10
2022-10-08T05:42:33.234Z,12.27
2022-10-08T05:45:01.795Z,12.82
2022-10-08T05:47:30.307Z,11.10
2022-10-08T05:50:00.209Z,13.35
2022-10-08T05:52:28.752Z,13.73
2022-10-08T05:54:57.168Z,12.48
2022-10-08T05:57:25.799Z,12.90
2022-10-08T05:59:54.318Z,19.33
2022-10-08T06:02:23.295Z,14.60
2022-10-08T06:04:51.875Z,13.40
2022-10-08T06:07:21.948Z,11.57
2022-10-08T06:09:52.242Z,13.02
2022-10-08T06:12:20.822Z,10.80
2022-10-08T06:14:49.288Z,10.63
2022-10-08T06:17:17.958Z,10.07
2022-10-08T06:19:46.383Z,12.77
2022-10-08T06:22:14.966Z,10.90
2022-10-08T06:24:44.774Z,11.23
2022-10-08T06:27:13.471Z,10.32
2022-10-08T06:29:41.916Z,10.48
2022-10-08T06:32:13.312Z,10.25
2022-10-08T06:34:42.608Z,10.88
2022-10-08T06:37:11.450Z,11.45
2022-10-08T06:39:41.273Z,10.80
2022-10-08T06:42:13.754Z,10.18
2022-10-08T06:44:42.297Z,11.07
2022-10-08T06:47:10.844Z,10.15
2022-10-08T06:49:39.872Z,11.52
2022-10-08T06:52:08.439Z,10.20
2022-10-08T06:54:36.945Z,14.18
2022-10-08T06:57:05.484Z,10.27
2022-10-08T06:59:35.480Z,11.27
2022-10-08T07:02:04.095Z,10.25
2022-10-08T07:04:32.684Z,10.68
2022-10-08T07:07:01.142Z,10.02
2022-10-08T07:09:29.701Z,10.65
2022-10-08T07:11:58.165Z,11.23
2022-10-08T07:14:26.766Z,10.82
2022-10-08T07:16:56.640Z,25.40
2022-10-08T07:19:25.565Z,18.15
2022-10-08T07:21:56.820Z,16.08
2022-10-08T07:24:29.100Z,16.52
2022-10-08T07:26:58.007Z,40.95
2022-10-08T07:29:26.532Z,44.67
2022-10-08T07:31:56.594Z,46.67
2022-10-08T07:34:25.108Z,54.85
2022-10-08T07:36:53.670Z,50.60
2022-10-08T07:39:22.614Z,34.97
2022-10-08T07:41:51.263Z,40.97
2022-10-08T07:44:19.883Z,25.77
2022-10-08T07:46:49.307Z,34.65
2022-10-08T07:49:19.580Z,29.60
2022-10-08T07:51:48.277Z,29.45
2022-10-08T07:54:17.950Z,33.38
2022-10-08T07:56:46.435Z,32.42
2022-10-08T07:59:16.122Z,27.50
2022-10-08T08:01:45.102Z,25.10
2022-10-08T08:04:14.698Z,23.63
2022-10-08T08:06:47.591Z,25.83
2022-10-08T08:09:16.299Z,23.45
2022-10-08T08:11:46.103Z,23.33
2022-10-08T08:14:14.588Z,22.33
2022-10-08T08:16:43.384Z,22.52
2022-10-08T08:19:11.877Z,21.58
2022-10-08T08:21:40.563Z,21.67
2022-10-08T08:24:12.322Z,20.73
2022-10-08T08:26:42.710Z,18.77
2022-10-08T08:29:12.752Z,17.23
2022-10-08T08:31:43.554Z,15.90
2022-10-08T08:34:13.600Z,17.23
2022-10-08T08:36:43.392Z,18.20
2022-10-08T08:39:17.418Z,18.02
2022-10-08T08:42:09.814Z,16.30
2022-10-08T08:44:40.019Z,14.90
2022-10-08T08:47:14.154Z,16.35
2022-10-08T08:49:43.837Z,15.15
2022-10-08T08:52:15.374Z,13.07
2022-10-08T08:54:46.912Z,15.60
2022-10-08T08:57:30.957Z,13.77
2022-10-08T09:00:04.282Z,15.32
2022-10-08T09:02:35.777Z,13.20
2022-10-08T09:05:07.350Z,16.52
2022-10-08T09:07:43.199Z,14.75
2022-10-08T09:10:18.131Z,15.23
2022-10-08T09:12:47.210Z,11.75
2022-10-08T09:15:19.956Z,11.75
2022-10-08T09:17:51.741Z,11.85
2022-10-08T09:20:22.533Z,11.18
2022-10-08T09:22:51.673Z,12.73
2022-10-08T09:25:23.409Z,12.05
2022-10-08T09:27:53.621Z,11.32
2022-10-08T09:30:37.298Z,11.07
2022-10-08T09:33:26.322Z,10.75
2022-10-08T09:35:55.160Z,10.27
2022-10-08T09:38:25.338Z,10.38
2022-10-08T09:41:06.766Z,11.05
2022-10-08T09:43:35.977Z,10.75
2022-10-08T09:46:11.794Z,10.10
2022-10-08T09:48:41.839Z,10.68
2022-10-08T09:51:15.372Z,10.05
2022-10-08T09:53:46.211Z,10.55
2022-10-08T09:56:16.178Z,10.85
2022-10-08T09:58:52.744Z,10.10
2022-10-08T10:01:21.391Z,10.40
2022-10-08T10:03:51.309Z,9.02
2022-10-08T10:06:33.228Z,9.60
2022-10-08T10:09:04.415Z,9.75
2022-10-08T10:11:42.132Z,9.98
2022-10-08T10:14:21.564Z,9.18
2022-10-08T10:16:54.036Z,10.57
2022-10-08T10:19:24.664Z,9.93
2022-10-08T10:21:56.230Z,8.90
2022-10-08T10:24:41.978Z,8.35
2022-10-08T10:27:14.865Z,9.00
2022-10-08T10:29:54.059Z,9.02
2022-10-08T10:32:25.912Z,9.18
2022-10-08T10:35:05.016Z,8.73
2022-10-08T10:37:39.960Z,8.77
2022-10-08T10:40:37.246Z,11.80
2022-10-08T10:43:22.383Z,9.27
2022-10-08T10:45:55.157Z,9.30
2022-10-08T10:48:23.704Z,8.85
2022-10-08T10:51:22.057Z,8.70
2022-10-08T10:53:58.410Z,8.30
2022-10-08T10:56:26.877Z,9.73
2022-10-08T10:59:18.823Z,9.30
2022-10-08T11:01:50.900Z,9.63
2022-10-08T11:04:23.706Z,15.73
2022-10-08T11:07:02.897Z,12.38
2022-10-08T11:09:40.995Z,12.38
2022-10-08T11:12:25.892Z,12.07
2022-10-08T11:15:02.878Z,12.23
2022-10-08T11:17:44.930Z,10.65
2022-10-08T11:20:39.720Z,9.52
2022-10-08T11:23:21.551Z,12.25
2022-10-08T11:26:17.836Z,9.93
2022-10-08T11:28:50.440Z,11.13
2022-10-08T11:31:28.229Z,14.93
2022-10-08T11:33:57.872Z,12.13
2022-10-08T11:36:33.028Z,11.48
2022-10-08T11:39:07.754Z,11.88
2022-10-08T11:41:41.393Z,10.13
2022-10-08T11:44:12.245Z,10.82
2022-10-08T11:46:42.262Z,9.88
2022-10-08T11:49:44.561Z,10.57
2022-10-08T11:52:15.936Z,13.57
2022-10-08T11:54:51.663Z,11.43
2022-10-08T11:57:24.875Z,13.30
2022-10-08T11:59:57.730Z,11.48
2022-10-08T12:02:30.774Z,9.35
2022-10-08T12:05:00.511Z,9.52
2022-10-08T12:07:32.833Z,9.02
2022-10-08T12:10:33.338Z,9.38
2022-10-08T12:13:25.656Z,9.63
2022-10-08T12:16:06.798Z,9.40
2022-10-08T12:18:54.761Z,9.38
2022-10-08T12:21:53.278Z,10.32
2022-10-08T12:25:00.410Z,8.82
2022-10-08T12:27:34.671Z,8.63
2022-10-08T12:30:06.808Z,11.73
2022-10-08T12:32:56.553Z,8.55
2022-10-08T12:35:29.702Z,9.23
2022-10-08T12:38:24.067Z,8.30
2022-10-08T12:40:59.863Z,9.15
2022-10-08T12:43:35.897Z,8.65
2022-10-08T12:46:12.253Z,10.63
2022-10-08T12:48:44.016Z,8.55
2022-10-08T12:51:22.903Z,8.60
2022-10-08T12:53:51.523Z,7.93
2022-10-08T12:56:23.335Z,8.50
2022-10-08T12:58:51.974Z,8.43
2022-10-08T13:01:20.573Z,7.75
2022-10-08T13:03:49.672Z,8.13
2022-10-08T13:06:31.778Z,8.02
2022-10-08T13:09:02.459Z,9.35
2022-10-08T13:11:31.101Z,8.48
2022-10-08T13:13:59.725Z,8.68
2022-10-08T13:16:28.935Z,8.38
2022-10-08T13:18:58.723Z,8.95
2022-10-08T13:21:38.809Z,7.95
2022-10-08T13:24:40.822Z,8.65
2022-10-08T13:27:24.182Z,8.80
2022-10-08T13:29:52.950Z,8.18
2022-10-08T13:32:23.314Z,8.60
2022-10-08T13:34:53.058Z,7.93
2022-10-08T13:37:32.339Z,7.85
2022-10-08T13:40:01.988Z,8.13
2022-10-08T13:42:31.989Z,8.15
2022-10-08T13:45:01.255Z,8.40
2022-10-08T13:47:29.945Z,8.80
2022-10-08T13:50:02.250Z,8.68
2022-10-08T13:52:33.651Z,7.50
2022-10-08T13:55:04.522Z,9.32
2022-10-08T13:57:33.177Z,8.20
2022-10-08T14:00:01.849Z,8.25
2022-10-08T14:02:30.358Z,9.35
2022-10-08T14:04:59.041Z,8.43
2022-10-08T14:07:29.014Z,8.63
2022-10-08T14:09:59.126Z,8.00
2022-10-08T14:12:30.089Z,8.15
2022-10-08T14:14:58.725Z,8.50
2022-10-08T14:17:27.307Z,8.35
2022-10-08T14:19:56.512Z,8.00
2022-10-08T14:22:25.131Z,8.35
2022-10-08T14:24:54.087Z,8.95
2022-10-08T14:27:24.145Z,7.70
2022-10-08T14:29:52.773Z,8.65
2022-10-08T14:32:21.314Z,7.57
2022-10-08T14:34:49.818Z,7.63
2022-10-08T14:37:18.570Z,8.25
2022-10-08T14:39:47.446Z,8.02
2022-10-08T14:42:15.995Z,7.75
2022-10-08T14:44:47.577Z,7.18
2022-10-08T14:47:16.592Z,9.27
2022-10-08T14:49:45.207Z,7.70
2022-10-08T14:52:13.870Z,7.45
2022-10-08T14:54:42.589Z,9.48
2022-10-08T14:57:11.368Z,7.55
2022-10-08T14:59:41.221Z,8.13
2022-10-08T15:02:12.269Z,7.60
2022-10-08T15:04:40.812Z,7.43
2022-10-08T15:07:09.506Z,7.10
2022-10-08T15:09:40.649Z,7.10
2022-10-08T15:12:09.205Z,7.40
2022-10-08T15:14:38.518Z,7.72
2022-10-08T15:17:07.396Z,7.70
2022-10-08T15:19:37.228Z,7.60
2022-10-08T15:22:05.715Z,7.90
2022-10-08T15:24:34.367Z,7.55
2022-10-08T15:27:03.078Z,7.78
2022-10-08T15:29:31.675Z,8.00
2022-10-08T15:32:00.369Z,7.53
2022-10-08T15:34:28.952Z,7.32
2022-10-08T15:36:58.964Z,7.05
2022-10-08T15:39:29.342Z,7.22
2022-10-08T15:42:00.774Z,7.68
2022-10-08T15:44:30.460Z,7.68
2022-10-08T15:47:01.599Z,7.50
2022-10-08T15:49:33.548Z,7.35
2022-10-08T15:52:03.695Z,7.78
2022-10-08T15:54:32.305Z,7.45
2022-10-08T15:57:00.862Z,7.68
2022-10-08T15:59:29.532Z,8.30
2022-10-08T16:01:58.087Z,11.35
2022-10-08T16:04:26.687Z,8.18
2022-10-08T16:06:55.538Z,7.60
2022-10-08T16:09:25.524Z,15.80
2022-10-08T16:11:54.102Z,10.90
2022-10-08T16:14:23.883Z,7.50
2022-10-08T16:16:52.501Z,8.55
2022-10-08T16:19:22.608Z,10.10
2022-10-08T16:21:52.448Z,9.15
2022-10-08T16:24:21.069Z,8.85
2022-10-08T16:26:50.915Z,10.20
2022-10-08T16:29:19.633Z,11.07
2022-10-08T16:31:48.634Z,7.97
2022-10-08T16:34:18.595Z,7.97
2022-10-08T16:36:48.356Z,8.05
2022-10-08T16:39:19.249Z,9.05
2022-10-08T16:41:48.297Z,11.32
2022-10-08T16:44:20.502Z,12.55
2022-10-08T16:46:51.018Z,10.02
2022-10-08T16:49:25.473Z,16.55
2022-10-08T16:51:55.001Z,15.35
2022-10-08T16:54:23.450Z,12.32
2022-10-08T16:56:51.920Z,13.45
2022-10-08T16:59:23.122Z,13.48
2022-10-08T17:01:53.825Z,14.70
2022-10-08T17:04:23.606Z,17.33
2022-10-08T17:06:52.590Z,12.20
2022-10-08T17:09:21.531Z,14.50
2022-10-08T17:11:50.233Z,14.75
2022-10-08T17:14:18.682Z,17.27
2022-10-08T17:16:49.803Z,15.05
2022-10-08T17:19:18.335Z,10.35
2022-10-08T17:21:46.796Z,14.48
2022-10-08T17:24:15.313Z,14.02
2022-10-08T17:26:51.671Z,13.10
2022-10-08T17:29:20.498Z,15.55
2022-10-08T17:31:50.334Z,15.60
2022-10-08T17:34:18.833Z,16.58
2022-10-08T17:36:47.875Z,16.65
2022-10-08T17:39:16.358Z,15.32
2022-10-08T17:41:44.953Z,15.90
2022-10-08T17:44:14.839Z,17.67
2022-10-08T17:46:45.929Z,19.85
2022-10-08T17:49:16.540Z,19.55
2022-10-08T17:51:45.043Z,23.33
2022-10-08T17:54:15.135Z,21.98
2022-10-08T17:56:43.735Z,18.35
2022-10-08T17:59:14.298Z,23.67
2022-10-08T18:01:45.247Z,21.80
2022-10-08T18:04:17.381Z,22.60
2022-10-08T18:06:47.141Z,23.00
2022-10-08T18:09:17.031Z,29.35
2022-10-08T18:11:47.543Z,26.48
2022-10-08T18:14:17.240Z,23.27
2022-10-08T18:16:48.498Z,21.80
2022-10-08T18:19:18.831Z,21.70
2022-10-08T18:21:47.484Z,27.80
2022-10-08T18:24:16.026Z,23.30
2022-10-08T18:26:44.671Z,22.98
2022-10-08T18:29:14.736Z,20.55
2022-10-08T18:31:44.162Z,23.25
2022-10-08T18:34:14.512Z,26.77
2022-10-08T18:36:44.380Z,25.70
2022-10-08T18:39:14.455Z,24.35
2022-10-08T18:41:44.173Z,23.23
2022-10-08T18:44:14.674Z,23.45
2022-10-08T18:46:44.652Z,24.48
2022-10-08T18:49:14.527Z,25.60
2022-10-08T18:51:44.505Z,23.08
2022-10-08T18:54:13.284Z,25.08
2022-10-08T18:56:41.862Z,21.30
2022-10-08T18:59:12.667Z,22.58
2022-10-08T19:01:42.816Z,21.75
2022-10-08T19:04:14.013Z,20.75
2022-10-08T19:06:44.687Z,25.63
2022-10-08T19:09:13.212Z,20.38
2022-10-08T19:11:45.038Z,22.85
2022-10-08T19:14:15.498Z,21.70
2022-10-08T19:16:44.083Z,24.92
2022-10-08T19:19:15.195Z,20.55
2022-10-08T19:21:45.282Z,25.10
2022-10-08T19:24:15.173Z,24.17
2022-10-08T19:26:43.814Z,23.60
2022-10-08T19:29:16.226Z,18.85
2022-10-08T19:31:47.366Z,25.48
2022-10-08T19:34:16.732Z,17.83
2022-10-08T19:36:46.719Z,20.23
2022-10-08T19:39:16.572Z,16.85
2022-10-08T19:41:45.257Z,19.63
2022-10-08T19:44:14.479Z,16.90
2022-10-08T19:46:43.109Z,17.80
2022-10-08T19:49:12.149Z,17.50
2022-10-08T19:51:40.734Z,18.17
2022-10-08T19:54:10.745Z,15.55
2022-10-08T19:56:39.359Z,16.65
2022-10-08T19:59:07.982Z,17.65
2022-10-08T20:01:39.195Z,18.92
2022-10-08T20:04:08.412Z,20.05
2022-10-08T20:06:39.377Z,18.52
2022-10-08T20:09:10.267Z,16.80
2022-10-08T20:11:40.435Z,17.38
2022-10-08T20:14:09.014Z,21.15
2022-10-08T20:16:39.185Z,18.50
2022-10-08T20:19:09.558Z,19.02
2022-10-08T20:21:38.730Z,17.55
2022-10-08T20:24:07.570Z,18.35
2022-10-08T20:26:37.116Z,18.33
2022-10-08T20:29:08.443Z,17.95
2022-10-08T20:31:38.198Z,16.73
2022-10-08T20:34:08.267Z,15.52
2022-10-08T20:36:36.840Z,16.08
2022-10-08T20:39:05.564Z,15.73
2022-10-08T20:41:34.197Z,16.30
2022-10-08T20:44:03.257Z,20.50
2022-10-08T20:46:33.366Z,45.33
2022-10-08T20:49:01.911Z,97.75
2022-10-08T20:51:30.608Z,73.10
2022-10-08T20:54:00.646Z,62.53
2022-10-08T20:56:29.568Z,40.40
2022-10-08T20:58:58.107Z,46.60
2022-10-08T21:01:27.851Z,30.60
2022-10-08T21:03:57.710Z,46.60
2022-10-08T21:06:27.801Z,39.75
2022-10-08T21:08:57.812Z,41.17
2022-10-08T21:11:28.033Z,32.50
2022-10-08T21:13:59.568Z,39.45
2022-10-08T21:16:29.495Z,40.55
2022-10-08T21:19:01.239Z,33.85
2022-10-08T21:21:30.540Z,35.28
2022-10-08T21:23:59.340Z,26.92
2022-10-08T21:26:29.621Z,32.80
2022-10-08T21:28:59.328Z,35.20
2022-10-08T21:31:29.136Z,27.35
2022-10-08T21:33:59.127Z,28.27
2022-10-08T21:36:29.479Z,28.75
2022-10-08T21:38:58.877Z,27.10
2022-10-08T21:41:29.728Z,30.48
2022-10-08T21:43:59.884Z,28.40
2022-10-08T21:46:31.277Z,25.42
2022-10-08T21:49:02.233Z,26.38
2022-10-08T21:51:31.210Z,28.02
2022-10-08T21:54:01.136Z,27.27
2022-10-08T21:56:31.213Z,25.80
2022-10-08T21:59:01.027Z,24.52
2022-10-08T22:01:31.251Z,24.02
2022-10-08T22:04:02.516Z,23.13
2022-10-08T22:06:33.177Z,22.08
2022-10-08T22:09:01.825Z,23.23
2022-10-08T22:11:30.352Z,26.08
2022-10-08T22:13:58.857Z,22.23
2022-10-08T22:16:29.568Z,18.88
2022-10-08T22:18:58.495Z,20.73
2022-10-08T22:21:28.584Z,22.70
2022-10-08T22:23:57.127Z,20.02
2022-10-08T22:26:28.270Z,21.67
2022-10-08T22:28:57.174Z,23.00
2022-10-08T22:31:25.942Z,17.15
2022-10-08T22:33:54.727Z,19.38
2022-10-08T22:36:24.789Z,16.17
2022-10-08T22:38:54.928Z,18.80
2022-10-08T22:41:24.784Z,19.42
2022-10-08T22:43:53.639Z,13.68
2022-10-08T22:46:23.680Z,18.92
2022-10-08T22:48:52.215Z,15.60
2022-10-08T22:51:21.634Z,16.75
2022-10-08T22:53:50.530Z,16.67
2022-10-08T22:56:22.016Z,14.38
2022-10-08T22:58:50.617Z,14.82
2022-10-08T23:01:20.945Z,15.55
2022-10-08T23:03:49.631Z,14.15
2022-10-08T23:06:19.257Z,12.70
2022-10-08T23:08:49.500Z,13.60
2022-10-08T23:11:19.373Z,14.50
2022-10-08T23:13:51.804Z,12.18
2022-10-08T23:16:20.575Z,14.50
2022-10-08T23:18:54.697Z,14.95
2022-10-08T23:21:23.326Z,13.27
2022-10-08T23:23:52.114Z,13.43
2022-10-08T23:26:22.383Z,11.75
2022-10-08T23:28:51.597Z,10.88
2022-10-08T23:31:21.554Z,13.40
2022-10-08T23:33:51.164Z,14.98
2022-10-08T23:36:21.498Z,13.82
2022-10-08T23:38:50.151Z,12.88
2022-10-08T23:41:18.758Z,12.95
2022-10-08T23:43:49.956Z,11.88
2022-10-08T23:46:20.409Z,12.00
2022-10-08T23:48:49.417Z,13.38
2022-10-08T23:51:18.105Z,12.80
2022-10-08T23:53:46.985Z,12.75
2022-10-08T23:56:15.674Z,10.82
2022-10-08T23:58:44.285Z,9.30
